Time;durP1;ratioP1;P1;durP2;ratioP2;P2;SDS_P1;SDS_P2;PMS_P1;PMS_P2;Temp;Humidity;BMP_temperature;BMP_pressure;BME280_temperature;BME280_humidity;BME280_pressure;Samples;Min_cycle;Max_cycle;Signal;HPM_P1;HPM_P2
2023/09/23 00:02:57;;;;;;;;;;;21.30;56.50;;;;;;10395166;28;19984;-55
2023/09/23 00:08:00;;;;;;;;;;;21.30;56.60;;;;;;10393415;28;19940;-55
2023/09/23 00:13:03;;;;;;;;;;;21.30;56.40;;;;;;10387671;28;34324;-54
2023/09/23 00:18:05;;;;;;;;;;;21.30;56.50;;;;;;10392987;28;19937;-56
2023/09/23 00:23:06;;;;;;;;;;;21.30;56.40;;;;;;10382397;28;19941;-54
2023/09/23 00:28:11;;;;;;;;;;;21.20;56.30;;;;;;10386181;28;20234;-55
2023/09/23 00:33:16;;;;;;;;;;;21.30;56.20;;;;;;10392158;28;19934;-55
2023/09/23 00:38:20;;;;;;;;;;;21.20;56.10;;;;;;10371634;28;19934;-56
2023/09/23 00:43:23;;;;;;;;;;;21.20;56.20;;;;;;10386389;28;19933;-56
2023/09/23 00:48:25;;;;;;;;;;;21.20;55.90;;;;;;10390404;28;19941;-56
2023/09/23 00:53:29;;;;;;;;;;;21.20;55.90;;;;;;10392671;28;19934;-56
2023/09/23 00:58:31;;;;;;;;;;;21.20;55.60;;;;;;10387898;28;19933;-57
2023/09/23 01:03:32;;;;;;;;;;;21.10;56.70;;;;;;10390596;28;19934;-55
2023/09/23 01:08:35;;;;;;;;;;;21.10;55.90;;;;;;10377076;28;19934;-55
2023/09/23 01:13:37;;;;;;;;;;;21.10;55.80;;;;;;10377570;28;20558;-56
2023/09/23 01:18:40;;;;;;;;;;;21.10;55.90;;;;;;10384476;28;19933;-55
2023/09/23 01:23:44;;;;;;;;;;;21.10;55.60;;;;;;10391108;28;19940;-55
2023/09/23 01:28:48;;;;;;;;;;;21.10;55.50;;;;;;10405277;28;20574;-56
2023/09/23 01:33:50;;;;;;;;;;;21.10;55.50;;;;;;10390956;28;19944;-56
2023/09/23 01:38:53;;;;;;;;;;;21.00;55.50;;;;;;10388404;28;19933;-56
2023/09/23 01:43:55;;;;;;;;;;;21.00;55.50;;;;;;10391229;28;19941;-55
2023/09/23 01:48:57;;;;;;;;;;;21.00;55.50;;;;;;10391638;28;19999;-54
2023/09/23 01:54:00;;;;;;;;;;;21.00;55.60;;;;;;10402817;28;20607;-55
2023/09/23 01:59:02;;;;;;;;;;;21.00;55.40;;;;;;10390619;28;20405;-56
2023/09/23 02:04:04;;;;;;;;;;;21.00;55.40;;;;;;10388929;28;19940;-55
2023/09/23 02:09:08;;;;;;;;;;;21.00;55.40;;;;;;10398491;28;19956;-57
2023/09/23 02:14:10;;;;;;;;;;;21.00;55.40;;;;;;10394285;28;20300;-56
2023/09/23 02:19:13;;;;;;;;;;;21.00;55.40;;;;;;10395903;28;20300;-55
2023/09/23 02:24:15;;;;;;;;;;;21.00;55.20;;;;;;10411483;28;19933;-55
2023/09/23 02:29:17;;;;;;;;;;;21.00;55.30;;;;;;10396343;28;19941;-57
2023/09/23 02:34:20;;;;;;;;;;;21.00;55.20;;;;;;10396063;28;19941;-55
2023/09/23 02:39:21;;;;;;;;;;;20.90;55.20;;;;;;10394930;28;20479;-55
2023/09/23 02:44:24;;;;;;;;;;;20.90;55.10;;;;;;10395735;28;19956;-55
2023/09/23 02:49:26;;;;;;;;;;;20.90;55.20;;;;;;10393556;28;20484;-55
2023/09/23 02:54:28;;;;;;;;;;;20.90;55.10;;;;;;10394847;28;19934;-55
2023/09/23 02:59:41;;;;;;;;;;;20.90;55.40;;;;;;10414405;28;20324;-55
2023/09/23 03:04:43;;;;;;;;;;;20.90;55.20;;;;;;10401647;28;20028;-56
2023/09/23 03:09:55;;;;;;;;;;;20.90;55.30;;;;;;10395009;28;19934;-55
2023/09/23 03:14:59;;;;;;;;;;;20.90;55.40;;;;;;10396104;28;19957;-56
2023/09/23 03:20:01;;;;;;;;;;;20.90;55.50;;;;;;10393289;28;19934;-56
2023/09/23 03:25:03;;;;;;;;;;;20.90;55.30;;;;;;10393787;28;19940;-56
2023/09/23 03:30:07;;;;;;;;;;;20.90;55.50;;;;;;10398452;28;20312;-56
2023/09/23 03:35:23;;;;;;;;;;;20.90;55.50;;;;;;10403005;28;19934;-56
2023/09/23 03:40:27;;;;;;;;;;;20.90;55.50;;;;;;10394337;28;19987;-56
2023/09/23 03:45:35;;;;;;;;;;;20.90;55.40;;;;;;10393717;28;20057;-54
2023/09/23 03:50:37;;;;;;;;;;;20.90;55.40;;;;;;10391977;28;19956;-55
2023/09/23 03:55:38;;;;;;;;;;;20.90;55.20;;;;;;10404015;28;19941;-54
2023/09/23 04:00:40;;;;;;;;;;;20.90;55.30;;;;;;10393347;28;19941;-54
2023/09/23 04:05:42;;;;;;;;;;;20.90;56.40;;;;;;10404161;28;19933;-55
2023/09/23 04:10:44;;;;;;;;;;;20.90;57.00;;;;;;10382221;28;20309;-56
2023/09/23 04:15:47;;;;;;;;;;;20.90;57.20;;;;;;10378225;28;20139;-53
2023/09/23 04:20:49;;;;;;;;;;;20.90;57.60;;;;;;10366202;28;20337;-55
2023/09/23 04:25:51;;;;;;;;;;;20.90;57.30;;;;;;10391286;28;19933;-54
2023/09/23 04:30:53;;;;;;;;;;;20.90;57.60;;;;;;10403367;28;19934;-53
2023/09/23 04:35:58;;;;;;;;;;;21.00;58.20;;;;;;10395338;28;19933;-55
2023/09/23 04:41:01;;;;;;;;;;;21.00;58.60;;;;;;10394927;28;20305;-56
2023/09/23 04:51:23;;;;;;;;;;;21.00;58.30;;;;;;10455099;22;20028;-53
2023/09/23 04:56:25;;;;;;;;;;;21.00;59.10;;;;;;10372939;28;19933;-52
2023/09/23 05:01:28;;;;;;;;;;;21.00;58.00;;;;;;10363976;28;20048;-52
2023/09/23 05:06:30;;;;;;;;;;;21.00;58.00;;;;;;10386550;28;19978;-52
2023/09/23 05:11:32;;;;;;;;;;;21.00;58.00;;;;;;10375487;28;19933;-53
2023/09/23 05:16:33;;;;;;;;;;;20.90;58.20;;;;;;10364256;28;20117;-52
2023/09/23 05:21:35;;;;;;;;;;;20.90;58.10;;;;;;10379894;28;19941;-52
2023/09/23 05:26:40;;;;;;;;;;;20.90;58.20;;;;;;10376231;28;19941;-52
2023/09/23 05:31:41;;;;;;;;;;;20.90;58.20;;;;;;10363442;28;20393;-52
2023/09/23 05:36:43;;;;;;;;;;;20.90;58.30;;;;;;10367456;28;20147;-52
2023/09/23 05:41:47;;;;;;;;;;;20.90;58.40;;;;;;10372168;28;20495;-53
2023/09/23 05:46:48;;;;;;;;;;;20.90;58.50;;;;;;10367796;28;20405;-50
2023/09/23 05:51:54;;;;;;;;;;;20.80;58.60;;;;;;10365756;28;20293;-53
2023/09/23 05:56:56;;;;;;;;;;;20.80;58.60;;;;;;10388850;28;19965;-53
2023/09/23 06:01:58;;;;;;;;;;;20.80;58.70;;;;;;10363761;28;19941;-54
2023/09/23 06:06:59;;;;;;;;;;;20.80;58.80;;;;;;10375628;28;19938;-53
2023/09/23 06:12:01;;;;;;;;;;;20.80;58.80;;;;;;10376401;28;19933;-52
2023/09/23 06:17:03;;;;;;;;;;;20.70;58.70;;;;;;10349585;28;20058;-51
2023/09/23 06:22:05;;;;;;;;;;;20.70;58.80;;;;;;10361934;28;19941;-51
2023/09/23 06:27:07;;;;;;;;;;;20.70;58.90;;;;;;10378181;28;19980;-70
2023/09/23 06:32:08;;;;;;;;;;;20.70;59.10;;;;;;10400447;28;20713;-53
2023/09/23 06:37:10;;;;;;;;;;;20.70;59.10;;;;;;10355440;28;20144;-71
2023/09/23 06:42:12;;;;;;;;;;;20.70;59.30;;;;;;10362584;28;19941;-50
2023/09/23 06:47:14;;;;;;;;;;;20.70;59.30;;;;;;10370220;28;20102;-50
2023/09/23 06:52:16;;;;;;;;;;;20.60;59.40;;;;;;10384345;28;19933;-51
2023/09/23 06:57:18;;;;;;;;;;;20.70;59.50;;;;;;10372801;28;19941;-50
2023/09/23 07:02:20;;;;;;;;;;;20.60;59.50;;;;;;10389939;28;20391;-52
2023/09/23 07:07:22;;;;;;;;;;;20.60;59.50;;;;;;10392841;28;19937;-52
2023/09/23 07:12:23;;;;;;;;;;;20.60;59.50;;;;;;10370713;28;19933;-51
2023/09/23 07:17:26;;;;;;;;;;;20.60;59.60;;;;;;10379438;28;19974;-53
2023/09/23 07:22:28;;;;;;;;;;;20.60;59.20;;;;;;10373781;28;19957;-51
2023/09/23 07:27:29;;;;;;;;;;;20.60;58.80;;;;;;10395653;28;20057;-53
2023/09/23 07:32:31;;;;;;;;;;;20.60;58.40;;;;;;10367232;28;19933;-50
2023/09/23 07:37:33;;;;;;;;;;;20.60;58.10;;;;;;10393127;28;20297;-47
2023/09/23 07:42:35;;;;;;;;;;;20.60;57.70;;;;;;10380827;28;19940;-51
2023/09/23 07:47:36;;;;;;;;;;;20.70;57.60;;;;;;10391703;28;20005;-50
2023/09/23 07:52:38;;;;;;;;;;;20.70;57.50;;;;;;10366979;28;19933;-50
2023/09/23 07:57:40;;;;;;;;;;;20.70;57.30;;;;;;10387089;28;20316;-52
2023/09/23 08:02:42;;;;;;;;;;;20.70;57.10;;;;;;10379759;28;19934;-49
2023/09/23 08:07:44;;;;;;;;;;;20.70;57.00;;;;;;10380374;28;20002;-52
2023/09/23 08:12:45;;;;;;;;;;;20.60;57.90;;;;;;10371250;28;19934;-51
2023/09/23 08:17:47;;;;;;;;;;;20.70;56.90;;;;;;10387304;28;19940;-53
2023/09/23 08:22:49;;;;;;;;;;;20.70;56.90;;;;;;10377250;28;20024;-52
2023/09/23 08:27:51;;;;;;;;;;;20.70;56.80;;;;;;10355381;28;19934;-52
2023/09/23 08:32:53;;;;;;;;;;;20.70;56.80;;;;;;10369456;28;19934;-52
2023/09/23 08:37:55;;;;;;;;;;;20.70;56.80;;;;;;10366910;28;20871;-51
2023/09/23 08:43:01;;;;;;;;;;;20.70;56.60;;;;;;10377522;28;19933;-53
2023/09/23 08:48:03;;;;;;;;;;;20.70;56.70;;;;;;10354960;28;19933;-52
2023/09/23 08:53:06;;;;;;;;;;;20.70;56.70;;;;;;10375205;28;20392;-52
2023/09/23 08:58:08;;;;;;;;;;;20.70;56.50;;;;;;10385047;28;19940;-52
2023/09/23 09:03:10;;;;;;;;;;;20.70;56.60;;;;;;10379543;28;19934;-53
2023/09/23 09:08:12;;;;;;;;;;;20.80;56.70;;;;;;10366045;28;20341;-50
2023/09/23 09:13:17;;;;;;;;;;;20.80;56.50;;;;;;10389351;28;20314;-53
2023/09/23 09:18:19;;;;;;;;;;;20.80;56.50;;;;;;10389042;28;19933;-49
2023/09/23 09:23:21;;;;;;;;;;;20.80;56.40;;;;;;10377491;28;19965;-52
2023/09/23 09:28:23;;;;;;;;;;;20.80;56.40;;;;;;10368364;28;19997;-50
2023/09/23 09:33:26;;;;;;;;;;;20.80;56.40;;;;;;10387471;28;19933;-51
2023/09/23 09:38:29;;;;;;;;;;;20.80;56.40;;;;;;10386515;28;20025;-51
2023/09/23 09:43:31;;;;;;;;;;;20.80;56.40;;;;;;10363979;28;19934;-50
2023/09/23 09:48:33;;;;;;;;;;;20.90;56.20;;;;;;10380968;28;20039;-49
2023/09/23 09:53:36;;;;;;;;;;;20.90;56.40;;;;;;10372618;28;20249;-50
2023/09/23 09:58:40;;;;;;;;;;;20.90;56.40;;;;;;10385191;28;19940;-51
2023/09/23 10:03:45;;;;;;;;;;;20.90;56.30;;;;;;10404060;28;20523;-53
2023/09/23 10:08:48;;;;;;;;;;;21.00;56.40;;;;;;10377775;28;20376;-51
2023/09/23 10:13:50;;;;;;;;;;;20.90;56.20;;;;;;10379786;28;20312;-51
2023/09/23 10:18:56;;;;;;;;;;;20.90;56.20;;;;;;10350435;28;19934;-63
2023/09/23 10:24:02;;;;;;;;;;;20.90;56.20;;;;;;10375758;28;20455;-52
2023/09/23 10:29:05;;;;;;;;;;;20.90;56.10;;;;;;10379020;28;19956;-53
2023/09/23 10:34:08;;;;;;;;;;;20.90;56.20;;;;;;10383508;28;20407;-49
2023/09/23 10:39:16;;;;;;;;;;;20.90;56.20;;;;;;10364767;28;20611;-53
2023/09/23 10:44:22;;;;;;;;;;;20.90;56.20;;;;;;10373223;28;20361;-50
2023/09/23 10:49:25;;;;;;;;;;;20.90;56.10;;;;;;10374093;28;19934;-53
2023/09/23 10:54:27;;;;;;;;;;;20.90;56.10;;;;;;10409396;28;19934;-53
2023/09/23 10:59:29;;;;;;;;;;;20.90;56.10;;;;;;10388373;28;19933;-52
2023/09/23 11:04:31;;;;;;;;;;;21.00;57.20;;;;;;10395773;28;20008;-56
2023/09/23 11:09:33;;;;;;;;;;;20.90;56.20;;;;;;10378716;28;19933;-51
2023/09/23 11:14:34;;;;;;;;;;;20.90;56.20;;;;;;10374272;28;20420;-52
2023/09/23 11:19:36;;;;;;;;;;;20.90;56.20;;;;;;10371159;28;19934;-53
2023/09/23 11:24:39;;;;;;;;;;;20.90;56.30;;;;;;10383168;28;19941;-53
2023/09/23 11:29:40;;;;;;;;;;;20.90;56.30;;;;;;10382180;28;20397;-53
2023/09/23 11:34:42;;;;;;;;;;;20.90;56.30;;;;;;10378945;28;20028;-68
2023/09/23 11:39:44;;;;;;;;;;;20.90;56.30;;;;;;10372521;28;19934;-53
2023/09/23 11:44:45;;;;;;;;;;;20.80;56.20;;;;;;10365596;28;20305;-53
2023/09/23 11:49:47;;;;;;;;;;;20.80;56.30;;;;;;10377111;28;19934;-53
2023/09/23 11:54:49;;;;;;;;;;;20.80;56.40;;;;;;10406402;28;19933;-49
2023/09/23 11:59:51;;;;;;;;;;;20.80;56.30;;;;;;10388530;28;20408;-53
2023/09/23 12:04:53;;;;;;;;;;;20.80;56.40;;;;;;10374382;28;20401;-53
2023/09/23 12:09:55;;;;;;;;;;;20.80;56.20;;;;;;10400554;28;19933;-53
2023/09/23 12:14:57;;;;;;;;;;;20.80;56.30;;;;;;10381725;28;19934;-53
2023/09/23 12:19:58;;;;;;;;;;;20.80;56.30;;;;;;10394985;28;19941;-53
2023/09/23 12:25:00;;;;;;;;;;;20.80;56.30;;;;;;10379169;28;19934;-51
2023/09/23 12:30:03;;;;;;;;;;;20.90;56.50;;;;;;10366715;28;19934;-50
2023/09/23 12:35:04;;;;;;;;;;;20.90;56.40;;;;;;10392734;28;19940;-51
2023/09/23 12:40:07;;;;;;;;;;;20.90;56.50;;;;;;10352611;28;19933;-51
2023/09/23 12:45:10;;;;;;;;;;;20.90;56.50;;;;;;10404468;28;20465;-52
2023/09/23 12:50:12;;;;;;;;;;;20.90;56.50;;;;;;10401526;28;19933;-52
2023/09/23 12:55:14;;;;;;;;;;;20.90;56.60;;;;;;10386292;28;20182;-52
2023/09/23 13:00:16;;;;;;;;;;;20.90;56.50;;;;;;10366066;28;20423;-52
2023/09/23 13:05:18;;;;;;;;;;;20.90;56.60;;;;;;10388962;28;20040;-51
2023/09/23 13:10:20;;;;;;;;;;;20.90;56.60;;;;;;10391451;28;20018;-53
2023/09/23 13:15:22;;;;;;;;;;;20.90;56.60;;;;;;10364754;28;19940;-54
2023/09/23 13:20:23;;;;;;;;;;;20.90;56.60;;;;;;10364427;28;19933;-51
2023/09/23 13:25:25;;;;;;;;;;;21.00;56.70;;;;;;10363274;28;20028;-51
2023/09/23 13:30:27;;;;;;;;;;;21.00;56.70;;;;;;10376101;28;20422;-52
2023/09/23 13:35:29;;;;;;;;;;;21.00;56.70;;;;;;10392483;28;19934;-52
2023/09/23 13:40:33;;;;;;;;;;;21.00;56.70;;;;;;10360901;28;20068;-53
2023/09/23 13:45:34;;;;;;;;;;;21.10;56.80;;;;;;10378525;28;19933;-53
2023/09/23 13:50:36;;;;;;;;;;;21.10;56.60;;;;;;10392467;28;19934;-65
2023/09/23 13:55:38;;;;;;;;;;;21.10;56.60;;;;;;10367264;28;20060;-50
2023/09/23 14:00:40;;;;;;;;;;;21.10;56.60;;;;;;10378826;28;19933;-52
2023/09/23 14:05:42;;;;;;;;;;;21.20;56.70;;;;;;10350030;28;19977;-51
2023/09/23 14:10:44;;;;;;;;;;;21.20;56.60;;;;;;10355525;28;19933;-53
2023/09/23 14:15:45;;;;;;;;;;;21.20;56.60;;;;;;10370294;28;19940;-50
2023/09/23 14:20:47;;;;;;;;;;;21.20;56.50;;;;;;10363461;28;20016;-52
2023/09/23 14:25:49;;;;;;;;;;;21.20;56.50;;;;;;10386688;28;19934;-53
2023/09/23 14:30:51;;;;;;;;;;;21.20;56.40;;;;;;10384007;28;20027;-49
2023/09/23 14:35:53;;;;;;;;;;;21.20;56.40;;;;;;10391766;28;19933;-49
2023/09/23 14:40:56;;;;;;;;;;;21.20;56.40;;;;;;10387573;28;20057;-53
2023/09/23 14:45:58;;;;;;;;;;;21.20;56.30;;;;;;10382275;28;20756;-52
2023/09/23 14:51:00;;;;;;;;;;;21.20;56.30;;;;;;10393020;28;19934;-50
2023/09/23 14:56:01;;;;;;;;;;;21.20;56.30;;;;;;10380362;28;19934;-52
2023/09/23 15:01:06;;;;;;;;;;;21.20;56.30;;;;;;10383137;28;19934;-51
2023/09/23 15:06:08;;;;;;;;;;;21.20;56.30;;;;;;10378182;28;19940;-52
2023/09/23 15:11:10;;;;;;;;;;;21.20;56.30;;;;;;10386573;28;19933;-52
2023/09/23 15:16:12;;;;;;;;;;;21.20;56.30;;;;;;10395375;28;20506;-50
2023/09/23 15:21:14;;;;;;;;;;;21.20;56.30;;;;;;10362239;28;19934;-52
2023/09/23 15:26:17;;;;;;;;;;;21.20;56.20;;;;;;10389633;28;20313;-52
2023/09/23 15:31:20;;;;;;;;;;;21.20;56.30;;;;;;10370020;28;20452;-52
2023/09/23 15:36:21;;;;;;;;;;;21.20;56.20;;;;;;10385506;28;19939;-52
2023/09/23 15:41:23;;;;;;;;;;;21.20;56.30;;;;;;10378506;28;19941;-53
2023/09/23 15:46:25;;;;;;;;;;;21.10;57.70;;;;;;10405156;28;19941;-52
2023/09/23 15:51:27;;;;;;;;;;;21.20;58.20;;;;;;10398266;28;20431;-53
2023/09/23 15:56:31;;;;;;;;;;;21.40;58.40;;;;;;10385868;28;19933;-50
2023/09/23 16:01:32;;;;;;;;;;;21.70;61.30;;;;;;10394563;28;19978;-53
2023/09/23 16:06:35;;;;;;;;;;;22.00;60.10;;;;;;10392003;28;19940;-59
2023/09/23 16:11:37;;;;;;;;;;;22.20;60.40;;;;;;10385542;28;20839;-52
2023/09/23 16:16:39;;;;;;;;;;;22.20;59.80;;;;;;10402622;28;20015;-52
2023/09/23 16:21:41;;;;;;;;;;;22.20;60.00;;;;;;10387530;28;19940;-50
2023/09/23 16:26:43;;;;;;;;;;;22.10;60.00;;;;;;10382248;28;19941;-50
2023/09/23 16:31:45;;;;;;;;;;;22.00;60.10;;;;;;10376852;28;19933;-52
2023/09/23 16:36:47;;;;;;;;;;;21.90;60.10;;;;;;10401171;28;20319;-50
2023/09/23 16:41:49;;;;;;;;;;;21.90;60.40;;;;;;10385070;28;20092;-51
2023/09/23 16:46:53;;;;;;;;;;;21.80;60.70;;;;;;10378322;28;19933;-51
2023/09/23 16:51:57;;;;;;;;;;;21.70;61.00;;;;;;10367834;28;19934;-52
2023/09/23 16:56:58;;;;;;;;;;;21.60;61.20;;;;;;10384234;28;20004;-48
2023/09/23 17:02:00;;;;;;;;;;;21.60;61.40;;;;;;10385006;28;20389;-53
2023/09/23 17:07:02;;;;;;;;;;;21.50;61.50;;;;;;10374487;28;19941;-51
2023/09/23 17:12:04;;;;;;;;;;;21.50;61.70;;;;;;10377181;28;20140;-53
2023/09/23 17:17:05;;;;;;;;;;;21.40;61.80;;;;;;10376065;28;19996;-51
2023/09/23 17:22:09;;;;;;;;;;;21.50;62.00;;;;;;10365626;28;19961;-51
2023/09/23 17:27:10;;;;;;;;;;;21.50;62.10;;;;;;10376509;28;20559;-54
2023/09/23 17:32:12;;;;;;;;;;;21.40;62.20;;;;;;10385389;28;19941;-52
2023/09/23 17:37:14;;;;;;;;;;;21.40;62.20;;;;;;10382427;28;20816;-53
2023/09/23 17:42:16;;;;;;;;;;;21.40;62.20;;;;;;10382436;28;19940;-52
2023/09/23 17:47:17;;;;;;;;;;;21.40;62.40;;;;;;10389241;28;19940;-53
2023/09/23 17:52:19;;;;;;;;;;;21.40;62.70;;;;;;10376733;28;20032;-53
2023/09/23 17:57:21;;;;;;;;;;;21.40;62.70;;;;;;10371984;28;19940;-51
2023/09/23 18:02:23;;;;;;;;;;;21.40;62.80;;;;;;10404929;28;19941;-50
2023/09/23 18:07:25;;;;;;;;;;;21.40;62.80;;;;;;10350498;28;19941;-51
2023/09/23 18:12:27;;;;;;;;;;;21.40;63.00;;;;;;10382745;28;20434;-51
2023/09/23 18:17:29;;;;;;;;;;;21.30;63.00;;;;;;10384660;28;20065;-50
2023/09/23 18:22:31;;;;;;;;;;;21.30;63.10;;;;;;10355186;28;19933;-50
2023/09/23 18:27:33;;;;;;;;;;;21.30;63.00;;;;;;10379668;28;19933;-53
2023/09/23 18:32:35;;;;;;;;;;;21.30;63.30;;;;;;10356731;28;19933;-52
2023/09/23 18:37:37;;;;;;;;;;;21.30;63.40;;;;;;10376714;28;20392;-51
2023/09/23 18:42:38;;;;;;;;;;;21.30;63.40;;;;;;10375746;28;19963;-52
2023/09/23 18:47:40;;;;;;;;;;;21.30;63.50;;;;;;10386298;28;20158;-52
2023/09/23 18:52:42;;;;;;;;;;;21.30;63.40;;;;;;10387436;28;19964;-50
2023/09/23 18:57:44;;;;;;;;;;;21.40;63.50;;;;;;10385572;28;20145;-52
2023/09/23 19:02:46;;;;;;;;;;;21.30;63.50;;;;;;10377388;28;19959;-51
2023/09/23 19:07:48;;;;;;;;;;;21.30;63.40;;;;;;10375124;28;20435;-50
2023/09/23 19:12:50;;;;;;;;;;;21.30;63.40;;;;;;10390857;28;19934;-47
2023/09/23 19:17:53;;;;;;;;;;;21.30;63.40;;;;;;10373121;28;20031;-51
2023/09/23 19:22:55;;;;;;;;;;;21.30;63.40;;;;;;10382038;28;20432;-52
2023/09/23 19:27:57;;;;;;;;;;;21.30;63.50;;;;;;10389009;28;20234;-53
2023/09/23 19:32:59;;;;;;;;;;;21.30;63.50;;;;;;10375069;28;20324;-59
2023/09/23 19:38:02;;;;;;;;;;;21.30;63.50;;;;;;10393003;28;19984;-55
2023/09/23 19:43:04;;;;;;;;;;;21.30;64.50;;;;;;10390106;28;19940;-56
2023/09/23 19:48:06;;;;;;;;;;;21.30;63.50;;;;;;10367006;28;19934;-51
2023/09/23 19:53:09;;;;;;;;;;;21.20;63.50;;;;;;10380555;28;19934;-50
2023/09/23 19:58:11;;;;;;;;;;;21.20;63.50;;;;;;10385926;28;20538;-51
2023/09/23 20:03:16;;;;;;;;;;;21.20;63.50;;;;;;10384715;28;20427;-51
2023/09/23 20:08:19;;;;;;;;;;;21.20;63.50;;;;;;10366467;28;20389;-51
2023/09/23 20:13:22;;;;;;;;;;;21.10;63.50;;;;;;10375242;28;20046;-50
2023/09/23 20:18:24;;;;;;;;;;;21.20;63.50;;;;;;10388829;28;19940;-51
2023/09/23 20:23:26;;;;;;;;;;;21.10;63.50;;;;;;10382154;28;19955;-52
2023/09/23 20:28:29;;;;;;;;;;;21.10;63.40;;;;;;10384044;28;19978;-50
2023/09/23 20:33:31;;;;;;;;;;;21.10;63.40;;;;;;10380228;28;19940;-52
2023/09/23 20:38:33;;;;;;;;;;;21.00;63.30;;;;;;10372854;28;20012;-52
2023/09/23 20:43:37;;;;;;;;;;;21.00;63.30;;;;;;10385370;28;19972;-50
2023/09/23 20:48:39;;;;;;;;;;;21.00;63.30;;;;;;10378744;28;19940;-52
2023/09/23 20:53:41;;;;;;;;;;;21.00;63.30;;;;;;10387023;28;20390;-53
2023/09/23 20:58:44;;;;;;;;;;;20.90;63.30;;;;;;10386927;28;20424;-53
2023/09/23 21:03:45;;;;;;;;;;;20.90;63.30;;;;;;10384165;28;19934;-51
2023/09/23 21:08:48;;;;;;;;;;;20.90;63.30;;;;;;10375814;28;20365;-52
2023/09/23 21:13:49;;;;;;;;;;;20.90;63.20;;;;;;10372230;28;19941;-51
2023/09/23 21:18:51;;;;;;;;;;;20.90;63.30;;;;;;10375753;28;20422;-52
2023/09/23 21:23:53;;;;;;;;;;;20.80;63.20;;;;;;10380802;28;20317;-54
2023/09/23 21:28:55;;;;;;;;;;;20.80;63.20;;;;;;10371202;28;19969;-51
2023/09/23 21:33:57;;;;;;;;;;;20.80;63.20;;;;;;10380953;28;20691;-52
2023/09/23 21:38:59;;;;;;;;;;;20.80;63.20;;;;;;10362191;28;20459;-52
2023/09/23 21:44:01;;;;;;;;;;;20.70;64.20;;;;;;10369010;28;20395;-48
2023/09/23 21:49:03;;;;;;;;;;;20.70;63.10;;;;;;10361667;28;20200;-51
2023/09/23 21:54:05;;;;;;;;;;;20.70;63.20;;;;;;10357833;28;19933;-52
2023/09/23 21:59:08;;;;;;;;;;;20.70;63.10;;;;;;10390184;28;19934;-52
2023/09/23 22:04:11;;;;;;;;;;;20.70;63.10;;;;;;10376360;28;19933;-53
2023/09/23 22:09:13;;;;;;;;;;;20.70;63.10;;;;;;10374020;28;20009;-53
2023/09/23 22:14:15;;;;;;;;;;;20.70;63.10;;;;;;10379563;28;20152;-53
2023/09/23 22:19:18;;;;;;;;;;;20.70;63.00;;;;;;10368607;28;19933;-52
2023/09/23 22:24:20;;;;;;;;;;;20.70;63.00;;;;;;10389165;28;19940;-52
2023/09/23 22:29:23;;;;;;;;;;;20.70;62.90;;;;;;10379441;28;20039;-51
2023/09/23 22:34:25;;;;;;;;;;;20.70;62.90;;;;;;10378304;28;19964;-53
2023/09/23 22:39:28;;;;;;;;;;;20.70;62.90;;;;;;10380836;28;19987;-52
2023/09/23 22:44:30;;;;;;;;;;;20.70;62.90;;;;;;10359137;28;19988;-53
2023/09/23 22:49:31;;;;;;;;;;;20.70;62.90;;;;;;10382282;28;19933;-53
2023/09/23 22:54:33;;;;;;;;;;;20.70;62.90;;;;;;10399509;28;20184;-53
2023/09/23 22:59:35;;;;;;;;;;;20.70;62.90;;;;;;10394760;28;20448;-50
2023/09/23 23:04:37;;;;;;;;;;;20.70;62.70;;;;;;10391776;28;19941;-52
2023/09/23 23:09:39;;;;;;;;;;;20.70;62.70;;;;;;10382089;28;19941;-52
2023/09/23 23:14:40;;;;;;;;;;;20.70;62.70;;;;;;10392989;28;19933;-51
2023/09/23 23:19:42;;;;;;;;;;;20.70;62.60;;;;;;10370408;28;20455;-51
2023/09/23 23:24:44;;;;;;;;;;;20.70;62.60;;;;;;10369590;28;19996;-54
2023/09/23 23:29:50;;;;;;;;;;;20.70;62.50;;;;;;10369153;28;19934;-53
2023/09/23 23:34:52;;;;;;;;;;;20.70;62.50;;;;;;10379653;28;19934;-55
2023/09/23 23:39:56;;;;;;;;;;;20.70;62.40;;;;;;10390077;28;20456;-52
2023/09/23 23:44:57;;;;;;;;;;;20.70;62.30;;;;;;10395099;28;20363;-53
2023/09/23 23:50:00;;;;;;;;;;;20.70;61.90;;;;;;10379185;28;20024;-58
2023/09/23 23:55:02;;;;;;;;;;;20.70;61.30;;;;;;10379017;28;19934;-52
